Time;durP1;ratioP1;P1;durP2;ratioP2;P2;SDS_P1;SDS_P2;PMS_P1;PMS_P2;Temp;Humidity;BMP_temperature;BMP_pressure;BME280_temperature;BME280_humidity;BME280_pressure;Samples;Min_cycle;Max_cycle;Signal;HPM_P1;HPM_P2
2023/08/02 00:02:10;;;;;;;6.90;1.13;;;;;;;14.56;100.00;99558.81;6098403;28;20025;-65
2023/08/02 00:05:06;;;;;;;6.15;1.23;;;;;;;14.69;100.00;99563.34;6101953;28;20523;-64
2023/08/02 00:08:01;;;;;;;2.58;1.45;;;;;;;14.65;100.00;99570.09;6106575;28;20037;-65
2023/08/02 00:10:56;;;;;;;4.73;1.20;;;;;;;14.61;100.00;99555.53;6098983;28;20025;-64
2023/08/02 00:13:51;;;;;;;6.87;1.23;;;;;;;14.54;100.00;99541.34;6096640;28;20029;-65
2023/08/02 00:16:47;;;;;;;6.47;1.20;;;;;;;14.68;100.00;99554.53;6097185;28;20495;-65
2023/08/02 00:19:42;;;;;;;3.70;1.27;;;;;;;14.64;100.00;99560.47;6099172;28;20033;-65
2023/08/02 00:22:37;;;;;;;4.77;1.40;;;;;;;14.49;100.00;99549.94;6098564;28;20035;-65
2023/08/02 00:25:33;;;;;;;7.03;1.27;;;;;;;14.45;100.00;99540.69;6098169;28;20457;-64
2023/08/02 00:28:28;;;;;;;3.53;1.07;;;;;;;14.58;100.00;99561.25;6098839;28;20059;-65
2023/08/02 00:31:23;;;;;;;3.43;1.30;;;;;;;14.58;100.00;99563.94;6098368;28;20762;-64
2023/08/02 00:34:19;;;;;;;5.23;1.40;;;;;;;14.63;100.00;99561.47;6088914;28;20056;-65
2023/08/02 00:37:14;;;;;;;2.40;1.43;;;;;;;14.64;100.00;99553.28;6098130;28;20064;-65
2023/08/02 00:40:10;;;;;;;3.23;1.00;;;;;;;14.66;100.00;99545.06;6098476;28;20017;-65
2023/08/02 00:43:05;;;;;;;2.15;1.00;;;;;;;14.75;100.00;99551.88;6098230;28;20082;-65
2023/08/02 00:46:01;;;;;;;7.05;1.80;;;;;;;14.77;100.00;99542.66;6097462;28;20040;-65
2023/08/02 00:48:56;;;;;;;5.03;1.60;;;;;;;14.77;100.00;99552.50;6098439;28;20457;-65
2023/08/02 00:51:51;;;;;;;4.47;1.47;;;;;;;14.89;100.00;99554.38;6092121;28;20078;-65
2023/08/02 00:54:47;;;;;;;4.50;1.27;;;;;;;14.83;100.00;99551.69;6108172;28;20083;-65
2023/08/02 00:57:43;;;;;;;3.90;1.25;;;;;;;14.93;100.00;99556.63;6097681;28;20095;-65
2023/08/02 01:00:38;;;;;;;8.03;1.57;;;;;;;14.99;100.00;99556.66;6097903;28;20028;-64
2023/08/02 01:03:35;;;;;;;4.40;1.60;;;;;;;14.99;100.00;99554.00;6097772;28;20112;-65
2023/08/02 01:06:30;;;;;;;6.63;1.63;;;;;;;15.02;100.00;99556.25;6096141;28;20321;-64
2023/08/02 01:09:31;;;;;;;7.00;1.53;;;;;;;15.05;100.00;99555.03;6097309;28;20025;-65
2023/08/02 01:12:28;;;;;;;6.18;1.48;;;;;;;15.10;100.00;99539.22;6105965;28;20025;-64
2023/08/02 01:15:25;;;;;;;6.28;1.58;;;;;;;15.10;100.00;99537.38;6096145;28;20037;-64
2023/08/02 01:18:20;;;;;;;5.43;1.92;;;;;;;15.06;100.00;99535.28;6097869;28;20531;-65
2023/08/02 01:21:15;;;;;;;3.65;1.50;;;;;;;15.11;100.00;99543.53;6096262;28;20027;-64
2023/08/02 01:24:11;;;;;;;4.27;1.60;;;;;;;15.06;100.00;99520.09;6096047;28;20037;-64
2023/08/02 01:27:14;;;;;;;5.60;1.67;;;;;;;14.97;100.00;99520.50;6091535;28;20036;-65
2023/08/02 01:30:12;;;;;;;3.22;1.92;;;;;;;15.08;100.00;99533.25;6097757;28;20096;-65
2023/08/02 01:33:07;;;;;;;5.13;1.77;;;;;;;15.03;100.00;99509.81;6096101;28;20044;-65
2023/08/02 01:36:03;;;;;;;5.60;1.65;;;;;;;15.07;100.00;99519.06;6095556;28;20534;-65
2023/08/02 01:38:59;;;;;;;5.18;1.60;;;;;;;14.98;100.00;99508.78;6106520;28;20032;-65
2023/08/02 01:41:54;;;;;;;3.33;1.57;;;;;;;15.06;100.00;99520.09;6097000;28;20078;-64
2023/08/02 01:44:49;;;;;;;3.13;1.60;;;;;;;14.97;100.00;99508.00;6096946;28;20021;-64
2023/08/02 01:47:45;;;;;;;3.63;1.50;;;;;;;14.87;100.00;99500.38;6097022;28;20552;-65
2023/08/02 01:50:40;;;;;;;3.50;1.50;;;;;;;14.94;100.00;99505.72;6083253;28;20037;-64
2023/08/02 01:53:35;;;;;;;3.77;1.60;;;;;;;14.89;100.00;99492.16;6095888;28;20283;-65
2023/08/02 01:56:30;;;;;;;15.27;2.40;;;;;;;14.89;100.00;99487.63;6097162;28;20025;-64
2023/08/02 01:59:26;;;;;;;6.97;1.73;;;;;;;14.84;100.00;99491.94;6096753;28;20039;-64
2023/08/02 02:02:21;;;;;;;6.83;2.10;;;;;;;14.82;100.00;99492.16;6091800;28;20020;-65
2023/08/02 02:05:16;;;;;;;7.75;1.98;;;;;;;14.85;100.00;99506.94;6096693;28;20671;-65
2023/08/02 02:08:12;;;;;;;7.40;1.80;;;;;;;14.90;100.00;99507.13;6097031;28;20033;-64
2023/08/02 02:11:07;;;;;;;6.50;1.90;;;;;;;14.87;100.00;99489.69;6096945;28;20483;-64
2023/08/02 02:14:03;;;;;;;5.05;1.75;;;;;;;14.78;100.00;99464.19;6096793;28;20032;-64
2023/08/02 02:16:58;;;;;;;3.23;1.57;;;;;;;14.86;100.00;99469.38;6096173;28;20032;-65
2023/08/02 02:19:53;;;;;;;5.13;1.93;;;;;;;14.94;100.00;99467.53;6099659;28;20044;-64
2023/08/02 02:22:48;;;;;;;6.20;1.90;;;;;;;15.06;100.00;99477.38;6101715;28;20426;-64
2023/08/02 02:25:44;;;;;;;4.93;1.50;;;;;;;14.90;100.00;99461.75;6103426;28;20025;-64
2023/08/02 02:28:39;;;;;;;4.93;1.80;;;;;;;14.96;100.00;99468.13;6101601;28;20322;-65
2023/08/02 02:31:34;;;;;;;5.43;1.67;;;;;;;14.97;100.00;99465.28;6101299;28;20039;-64
2023/08/02 02:34:30;;;;;;;6.27;1.87;;;;;;;15.02;100.00;99476.16;6104106;28;20041;-65
2023/08/02 02:37:25;;;;;;;5.67;1.70;;;;;;;15.09;100.00;99493.00;6101322;28;20380;-64
2023/08/02 02:40:20;;;;;;;4.90;1.83;;;;;;;14.99;100.00;99473.06;6100887;28;20402;-65
2023/08/02 02:43:15;;;;;;;7.77;1.90;;;;;;;14.98;100.00;99477.56;6103541;28;20597;-64
2023/08/02 02:46:11;;;;;;;5.80;1.80;;;;;;;15.06;100.00;99488.06;6100695;28;20621;-64
2023/08/02 02:49:06;;;;;;;3.43;1.67;;;;;;;15.08;100.00;99486.03;6100688;28;20033;-64
2023/08/02 02:52:02;;;;;;;5.77;1.60;;;;;;;15.11;100.00;99482.13;6099260;28;20032;-65
2023/08/02 02:54:57;;;;;;;4.03;1.80;;;;;;;15.23;100.00;99494.63;6099899;28;20271;-64
2023/08/02 02:57:52;;;;;;;5.07;1.57;;;;;;;15.14;100.00;99484.34;6100910;28;20043;-64
2023/08/02 03:00:48;;;;;;;6.55;1.75;;;;;;;15.24;100.00;99487.44;6100559;28;20025;-65
2023/08/02 03:03:43;;;;;;;8.97;1.80;;;;;;;15.11;100.00;99485.59;6100473;28;20028;-64
2023/08/02 03:06:38;;;;;;;5.40;2.00;;;;;;;15.11;100.00;99482.91;6098712;28;20044;-65
2023/08/02 03:09:33;;;;;;;5.93;1.60;;;;;;;15.09;100.00;99500.16;6100349;28;20037;-65
2023/08/02 03:12:29;;;;;;;3.97;1.70;;;;;;;14.85;100.00;99480.25;6100469;28;20024;-65
2023/08/02 03:15:24;;;;;;;5.83;1.73;;;;;;;14.83;100.00;99498.31;6097891;28;20040;-64
2023/08/02 03:18:19;;;;;;;7.90;2.20;;;;;;;14.66;100.00;99481.84;6100430;28;20096;-64
2023/08/02 03:21:15;;;;;;;6.97;1.80;;;;;;;14.43;100.00;99476.03;6100167;28;20036;-64
2023/08/02 03:24:10;;;;;;;7.93;2.30;;;;;;;14.42;100.00;99494.94;6093460;28;20274;-64
2023/08/02 03:27:06;;;;;;;4.70;2.08;;;;;;;14.40;100.00;99491.66;6100287;28;20021;-64
2023/08/02 03:30:01;;;;;;;6.45;2.15;;;;;;;14.24;100.00;99474.94;6099523;28;20586;-64
2023/08/02 03:32:56;;;;;;;9.37;2.63;;;;;;;14.22;100.00;99478.81;6099988;28;20439;-64
2023/08/02 03:35:51;;;;;;;6.63;2.10;;;;;;;14.18;100.00;99481.09;6099142;28;20060;-64
2023/08/02 03:38:47;;;;;;;5.37;2.20;;;;;;;14.02;100.00;99468.06;6099566;28;20369;-64
2023/08/02 03:41:42;;;;;;;6.63;1.90;;;;;;;13.96;100.00;99470.72;6099039;28;20028;-64
2023/08/02 03:44:37;;;;;;;4.87;2.00;;;;;;;13.98;100.00;99482.81;6098798;28;20040;-64
2023/08/02 03:47:33;;;;;;;7.57;2.17;;;;;;;13.90;100.00;99472.34;6099597;28;20419;-64
2023/08/02 03:50:28;;;;;;;4.27;2.00;;;;;;;13.89;100.00;99478.66;6098796;28;20029;-65
2023/08/02 03:53:27;;;;;;;8.73;2.10;;;;;;;13.83;100.00;99457.34;6097391;28;20052;-65
2023/08/02 03:56:22;;;;;;;6.25;2.22;;;;;;;13.80;100.00;99463.88;6099398;28;20265;-64
2023/08/02 03:59:17;;;;;;;4.00;2.00;;;;;;;13.79;100.00;99467.56;6099246;28;20671;-64
2023/08/02 04:02:13;;;;;;;3.90;2.20;;;;;;;13.84;100.00;99475.78;6099122;28;20283;-64
2023/08/02 04:05:08;;;;;;;4.83;2.80;;;;;;;13.77;100.00;99469.59;6098013;28;20492;-64
2023/08/02 04:08:03;;;;;;;5.43;2.27;;;;;;;13.85;100.00;99468.63;6096413;28;20635;-64
2023/08/02 04:11:05;;;;;;;8.50;2.10;;;;;;;13.90;100.00;99469.66;6099268;28;20286;-64
2023/08/02 04:14:00;;;;;;;7.30;2.45;;;;;;;13.81;100.00;99473.50;6098335;28;20277;-64
2023/08/02 04:16:56;;;;;;;7.87;2.50;;;;;;;13.75;100.00;99445.00;6098903;28;20362;-64
2023/08/02 04:19:51;;;;;;;7.07;2.30;;;;;;;13.80;100.00;99436.41;6098640;28;20317;-64
2023/08/02 04:22:49;;;;;;;5.80;2.50;;;;;;;14.04;100.00;99457.22;6098358;28;20113;-64
2023/08/02 04:25:44;;;;;;;4.78;2.25;;;;;;;14.32;100.00;99438.47;6098411;28;20275;-64
2023/08/02 04:28:39;;;;;;;5.73;2.60;;;;;;;14.58;100.00;99442.03;6098794;28;20025;-64
2023/08/02 04:31:35;;;;;;;9.27;2.27;;;;;;;14.79;100.00;99423.16;6098680;28;20040;-65
2023/08/02 04:34:30;;;;;;;3.17;1.67;;;;;;;15.20;100.00;99427.44;6097783;28;20283;-65
2023/08/02 04:37:25;;;;;;;5.68;2.83;;;;;;;15.25;100.00;99438.31;6098635;28;20075;-64
2023/08/02 04:40:21;;;;;;;4.27;2.10;;;;;;;15.42;100.00;99440.38;6087462;28;20606;-65
2023/08/02 04:43:16;;;;;;;4.90;1.93;;;;;;;15.34;100.00;99437.91;6096870;28;20459;-65
2023/08/02 04:46:11;;;;;;;7.70;2.15;;;;;;;15.47;100.00;99421.91;6098397;28;20063;-64
2023/08/02 04:49:07;;;;;;;8.33;2.10;;;;;;;15.35;100.00;99428.06;6098239;28;20111;-64
2023/08/02 04:52:02;;;;;;;5.17;2.20;;;;;;;15.87;99.28;99416.44;6098405;28;20302;-64
2023/08/02 04:54:58;;;;;;;4.20;1.90;;;;;;;15.98;97.60;99405.09;6093043;28;20024;-64
2023/08/02 04:57:53;;;;;;;7.10;2.73;;;;;;;15.96;98.29;99404.44;6092329;28;20499;-64
2023/08/02 05:00:48;;;;;;;5.27;2.10;;;;;;;16.13;95.37;99416.31;6099449;28;20283;-64
2023/08/02 05:03:44;;;;;;;5.60;2.03;;;;;;;15.85;98.18;99413.13;6098696;28;20175;-64
2023/08/02 05:06:39;;;;;;;5.40;2.20;;;;;;;15.94;96.69;99401.19;6098221;28;20311;-64
2023/08/02 05:09:34;;;;;;;5.43;2.00;;;;;;;15.74;97.97;99416.47;6096161;28;20039;-64
2023/08/02 05:12:32;;;;;;;4.53;2.07;;;;;;;15.64;99.44;99400.06;6095053;28;20025;-64
2023/08/02 05:15:28;;;;;;;7.88;2.33;;;;;;;15.61;99.43;99395.13;6098684;28;20352;-65
2023/08/02 05:18:23;;;;;;;5.20;1.97;;;;;;;15.88;99.04;99420.72;6108149;28;20043;-64
2023/08/02 05:21:19;;;;;;;5.40;2.23;;;;;;;15.72;99.42;99413.19;6096528;28;20040;-64
2023/08/02 05:24:15;;;;;;;7.40;2.42;;;;;;;15.48;100.00;99396.81;6098059;28;20436;-64
2023/08/02 05:27:10;;;;;;;6.33;2.13;;;;;;;15.67;100.00;99402.31;6096577;28;20039;-65
2023/08/02 05:30:06;;;;;;;4.30;1.90;;;;;;;16.00;99.84;99411.03;6104156;28;20041;-65
2023/08/02 05:33:01;;;;;;;6.05;2.00;;;;;;;15.94;99.15;99385.13;6096438;28;20418;-64
2023/08/02 05:36:00;;;;;;;4.37;2.23;;;;;;;15.91;99.52;99407.78;6096530;28;20522;-64
2023/08/02 05:38:55;;;;;;;20.02;3.40;;;;;;;16.29;97.90;99414.97;6096790;28;20278;-65
2023/08/02 05:41:50;;;;;;;9.90;2.53;;;;;;;16.44;96.55;99396.78;6097023;28;20025;-64
2023/08/02 05:44:46;;;;;;;6.70;2.50;;;;;;;16.58;94.40;99388.47;6096381;28;20025;-64
2023/08/02 05:47:41;;;;;;;5.87;2.50;;;;;;;16.54;96.03;99389.13;6097440;28;20476;-64
2023/08/02 05:50:36;;;;;;;6.60;2.03;;;;;;;16.43;96.96;99371.88;6096797;28;20063;-65
2023/08/02 05:53:32;;;;;;;6.77;2.77;;;;;;;16.57;97.99;99381.50;6098110;28;20037;-65
2023/08/02 05:56:27;;;;;;;23.50;4.03;;;;;;;16.51;96.63;99387.69;6105547;28;20036;-65
2023/08/02 05:59:22;;;;;;;22.77;3.70;;;;;;;16.24;97.23;99399.59;6099759;28;20329;-65
2023/08/02 06:02:18;;;;;;;6.13;2.03;;;;;;;15.99;98.07;99387.97;6101346;28;20091;-64
2023/08/02 06:05:13;;;;;;;5.73;2.40;;;;;;;15.91;99.25;99373.00;6104348;28;20036;-64
2023/08/02 06:08:08;;;;;;;3.60;1.80;;;;;;;16.00;99.00;99390.47;6100932;28;20043;-65
2023/08/02 06:11:04;;;;;;;6.67;2.07;;;;;;;15.69;100.00;99376.19;6100766;28;20031;-64
2023/08/02 06:13:59;;;;;;;6.77;1.97;;;;;;;15.96;100.00;99393.75;6100631;28;20033;-64
2023/08/02 06:16:54;;;;;;;7.73;1.90;;;;;;;15.97;99.73;99380.19;6099953;28;20393;-65
2023/08/02 06:19:49;;;;;;;3.77;1.90;;;;;;;16.04;98.97;99348.03;6101184;28;20029;-65
2023/08/02 06:22:45;;;;;;;3.70;1.50;;;;;;;16.37;97.97;99347.84;6100726;28;20035;-65
2023/08/02 06:25:40;;;;;;;7.20;1.83;;;;;;;17.39;93.18;99363.44;6099853;28;20472;-65
2023/08/02 06:28:35;;;;;;;5.50;1.67;;;;;;;17.31;91.41;99361.88;6100979;28;20025;-64
2023/08/02 06:31:31;;;;;;;6.50;1.90;;;;;;;17.10;93.48;99359.59;6101001;28;20083;-64
2023/08/02 06:34:26;;;;;;;7.40;1.43;;;;;;;16.72;93.04;99362.41;6099714;28;20101;-64
2023/08/02 06:37:21;;;;;;;7.60;1.53;;;;;;;16.51;95.32;99352.88;6105221;28;20590;-65
2023/08/02 06:40:17;;;;;;;4.40;1.63;;;;;;;17.35;93.27;99335.44;6100503;28;20036;-65
2023/08/02 06:43:12;;;;;;;4.28;1.30;;;;;;;17.65;90.42;99339.84;6100579;28;20032;-64
2023/08/02 06:46:07;;;;;;;5.07;1.43;;;;;;;18.06;90.07;99343.63;6100454;28;20143;-65
2023/08/02 06:49:03;;;;;;;3.88;1.30;;;;;;;18.17;86.64;99324.06;6100618;28;20379;-64
2023/08/02 06:51:58;;;;;;;3.33;1.40;;;;;;;18.50;84.57;99319.06;6107395;28;20033;-64
2023/08/02 06:54:53;;;;;;;3.17;1.60;;;;;;;18.69;82.32;99327.81;6098935;28;20057;-65
2023/08/02 06:57:49;;;;;;;4.07;1.33;;;;;;;19.06;82.63;99312.28;6103810;28;20448;-65
2023/08/02 07:00:44;;;;;;;2.70;1.17;;;;;;;19.62;77.96;99309.75;6102162;28;20418;-65
2023/08/02 07:03:39;;;;;;;3.70;1.30;;;;;;;18.84;82.19;99318.25;6103836;28;20087;-65
2023/08/02 07:06:35;;;;;;;4.07;1.20;;;;;;;18.83;82.66;99313.13;6097622;28;20032;-65
2023/08/02 07:09:32;;;;;;;4.30;1.20;;;;;;;18.86;83.07;99302.72;6095564;28;20315;-65
2023/08/02 07:12:28;;;;;;;5.82;1.70;;;;;;;18.84;84.33;99315.56;6105593;28;20033;-64
2023/08/02 07:15:23;;;;;;;4.72;1.15;;;;;;;18.75;84.58;99326.91;6098635;28;20419;-64
2023/08/02 07:18:18;;;;;;;3.87;1.20;;;;;;;19.47;81.86;99320.19;6100072;28;20434;-64
2023/08/02 07:21:14;;;;;;;3.67;1.10;;;;;;;20.03;77.92;99282.53;6099403;28;20376;-65
2023/08/02 07:24:09;;;;;;;2.77;1.00;;;;;;;19.41;79.41;99267.38;6098653;28;20060;-65
2023/08/02 07:27:05;;;;;;;7.27;1.30;;;;;;;19.30;82.59;99249.38;6098894;28;20140;-65
2023/08/02 07:30:02;;;;;;;4.70;1.23;;;;;;;19.54;80.96;99261.72;6100338;28;20035;-65
2023/08/02 07:32:58;;;;;;;3.42;1.15;;;;;;;18.62;83.17;99268.84;6104400;28;20028;-65
2023/08/02 07:35:53;;;;;;;3.92;1.00;;;;;;;18.50;84.24;99246.56;6092342;28;20107;-64
2023/08/02 07:38:49;;;;;;;2.13;0.80;;;;;;;18.86;83.19;99256.25;6103088;28;20491;-65
2023/08/02 07:41:44;;;;;;;3.40;1.10;;;;;;;19.19;82.45;99245.66;6098429;28;20057;-65
2023/08/02 07:44:39;;;;;;;4.00;1.47;;;;;;;19.68;79.51;99260.38;6097862;28;20040;-65
2023/08/02 07:47:35;;;;;;;4.57;1.13;;;;;;;19.61;79.08;99257.03;6103586;28;20025;-65
2023/08/02 07:50:31;;;;;;;5.55;1.90;;;;;;;19.84;78.34;99261.50;6098771;28;20025;-65
2023/08/02 07:53:26;;;;;;;3.75;1.25;;;;;;;19.50;78.60;99244.44;6094706;28;20500;-65
2023/08/02 07:56:21;;;;;;;2.93;1.30;;;;;;;19.77;79.27;99232.03;6101708;28;20443;-65
2023/08/02 07:59:17;;;;;;;5.37;1.33;;;;;;;19.70;79.26;99226.00;6098663;28;20039;-65
2023/08/02 08:02:12;;;;;;;4.97;1.33;;;;;;;19.79;80.42;99226.41;6094958;28;20025;-65
2023/08/02 08:05:08;;;;;;;3.95;1.10;;;;;;;20.64;74.56;99235.09;6105361;28;20098;-65
2023/08/02 08:08:03;;;;;;;3.45;1.25;;;;;;;20.97;71.91;99240.44;6106878;28;20040;-65
2023/08/02 08:10:58;;;;;;;3.35;1.17;;;;;;;20.42;74.10;99239.59;6104799;28;20036;-65
2023/08/02 08:13:54;;;;;;;3.03;1.30;;;;;;;20.01;75.03;99209.31;6098944;28;20029;-65
2023/08/02 08:16:49;;;;;;;3.28;1.38;;;;;;;20.42;75.58;99226.97;6101872;28;20035;-65
2023/08/02 08:19:45;;;;;;;1.93;1.10;;;;;;;20.75;74.68;99226.91;6102289;28;20036;-65
2023/08/02 08:22:40;;;;;;;2.10;1.00;;;;;;;21.25;73.32;99224.09;6095552;28;20052;-65
2023/08/02 08:25:35;;;;;;;3.00;1.20;;;;;;;20.84;73.38;99213.84;6097425;28;20263;-65
2023/08/02 08:28:31;;;;;;;3.60;1.03;;;;;;;20.79;74.42;99211.88;6107206;28;20279;-65
2023/08/02 08:31:28;;;;;;;5.10;1.40;;;;;;;20.62;75.30;99194.94;6104919;28;20496;-65
2023/08/02 08:34:24;;;;;;;3.92;1.25;;;;;;;20.59;75.82;99195.44;6098150;28;20357;-65
2023/08/02 08:37:19;;;;;;;3.23;1.03;;;;;;;20.57;75.47;99175.22;6100785;28;20027;-65
2023/08/02 08:40:17;;;;;;;3.90;1.40;;;;;;;20.19;75.26;99179.44;6098181;28;20271;-65
2023/08/02 08:43:12;;;;;;;6.47;1.63;;;;;;;20.48;74.53;99177.50;6098071;28;20036;-65
2023/08/02 08:46:11;;;;;;;3.23;1.20;;;;;;;20.50;76.12;99186.16;6104701;28;20368;-65
2023/08/02 08:49:06;;;;;;;4.38;1.40;;;;;;;20.56;73.70;99170.88;6103758;28;20048;-64
2023/08/02 08:52:04;;;;;;;2.33;1.13;;;;;;;20.11;76.43;99177.16;6098974;28;20456;-65
2023/08/02 08:55:00;;;;;;;3.58;1.23;;;;;;;20.20;77.59;99164.94;6098069;28;20028;-65
2023/08/02 08:57:55;;;;;;;3.10;1.50;;;;;;;20.13;75.98;99163.47;6091375;28;20106;-65
2023/08/02 09:00:54;;;;;;;4.43;1.40;;;;;;;20.46;74.97;99157.28;6098245;28;20036;-65
2023/08/02 09:03:50;;;;;;;3.88;1.17;;;;;;;20.96;73.35;99155.22;6115583;28;20476;-65
2023/08/02 09:06:45;;;;;;;4.83;1.13;;;;;;;20.54;73.29;99156.84;6099588;28;20039;-65
2023/08/02 09:09:40;;;;;;;4.60;1.40;;;;;;;21.24;71.42;99141.56;6106174;28;20043;-65
2023/08/02 09:12:43;;;;;;;3.37;1.30;;;;;;;20.95;72.73;99133.91;6097368;28;20037;-65
2023/08/02 09:15:39;;;;;;;4.07;1.20;;;;;;;20.43;74.54;99130.81;6093514;28;20041;-65
2023/08/02 09:18:35;;;;;;;3.97;1.55;;;;;;;20.32;76.18;99134.44;6098675;28;20430;-65
2023/08/02 09:21:30;;;;;;;6.32;1.73;;;;;;;19.90;76.29;99110.63;6104565;28;20530;-65
2023/08/02 09:24:34;;;;;;;3.20;1.50;;;;;;;19.89;76.69;99106.34;6097371;28;20044;-65
2023/08/02 09:27:30;;;;;;;3.58;1.23;;;;;;;19.85;75.98;99107.88;6102621;28;20075;-65
2023/08/02 09:30:32;;;;;;;4.80;1.60;;;;;;;19.63;77.25;99085.44;6095982;28;20047;-65
2023/08/02 09:33:28;;;;;;;4.22;1.60;;;;;;;19.67;77.97;99083.09;6096071;28;20364;-65
2023/08/02 09:36:33;;;;;;;3.17;1.53;;;;;;;19.54;77.66;99076.16;6099587;28;20032;-65
2023/08/02 09:39:29;;;;;;;3.72;1.50;;;;;;;19.60;78.08;99062.53;6097317;28;20120;-65
2023/08/02 09:42:26;;;;;;;4.20;1.67;;;;;;;19.56;78.33;99044.47;6098011;28;20032;-65
2023/08/02 09:45:30;;;;;;;4.15;1.73;;;;;;;19.56;77.79;99061.41;6106991;28;20150;-65
2023/08/02 09:48:35;;;;;;;4.88;1.83;;;;;;;19.26;78.71;99052.81;6097386;28;20074;-65
2023/08/02 09:51:39;;;;;;;4.05;1.77;;;;;;;19.14;79.45;99040.47;6095873;28;20079;-65
2023/08/02 09:54:34;;;;;;;5.20;2.20;;;;;;;19.19;80.56;99032.50;6105319;28;20480;-65
2023/08/02 09:57:30;;;;;;;4.73;1.87;;;;;;;19.18;82.51;99047.84;6101273;28;20029;-65
2023/08/02 10:00:26;;;;;;;5.15;1.70;;;;;;;18.85;86.43;99037.84;6097416;28;20032;-65
2023/08/02 10:03:23;;;;;;;5.73;2.10;;;;;;;18.86;91.73;99044.81;6099809;28;20039;-66
2023/08/02 10:06:19;;;;;;;4.60;2.13;;;;;;;18.51;93.17;99022.66;6101575;28;20280;-65
2023/08/02 10:09:19;;;;;;;6.15;2.40;;;;;;;18.23;97.00;99017.22;6105416;28;20036;-65
2023/08/02 10:12:16;;;;;;;5.97;2.13;;;;;;;18.39;98.46;99048.69;6112525;28;20551;-65
2023/08/02 10:15:11;;;;;;;6.15;2.28;;;;;;;18.41;100.00;99031.31;6108936;28;20107;-65
2023/08/02 10:18:08;;;;;;;6.40;2.30;;;;;;;18.38;97.17;98993.38;6104241;28;20049;-65
2023/08/02 10:21:04;;;;;;;5.35;2.35;;;;;;;18.45;98.72;99016.34;6098362;28;20280;-65
2023/08/02 10:24:00;;;;;;;4.65;2.05;;;;;;;18.63;98.48;98998.44;6096550;28;20399;-65
2023/08/02 10:26:56;;;;;;;7.05;2.85;;;;;;;18.66;97.10;98995.28;6103318;28;20032;-65
2023/08/02 10:29:52;;;;;;;4.00;2.10;;;;;;;18.62;97.54;98980.69;6099846;28;20040;-65
2023/08/02 10:33:11;;;;;;;6.95;2.28;;;;;;;18.61;98.06;99020.19;6104402;28;20364;-65
2023/08/02 10:36:07;;;;;;;4.60;2.40;;;;;;;18.42;97.49;98989.16;6084786;28;20028;-65
2023/08/02 10:39:02;;;;;;;4.60;2.00;;;;;;;18.30;98.53;98981.16;6095919;28;20033;-66
2023/08/02 10:41:58;;;;;;;5.13;1.97;;;;;;;18.31;98.72;98979.28;6103991;28;20131;-65
2023/08/02 10:44:56;;;;;;;3.87;2.10;;;;;;;18.45;99.87;98991.38;6101337;28;20267;-65
2023/08/02 10:47:51;;;;;;;5.10;2.20;;;;;;;18.24;100.00;98957.94;6103428;28;20679;-65
2023/08/02 10:50:48;;;;;;;4.77;2.30;;;;;;;18.02;100.00;98959.63;6101050;28;20037;-65
2023/08/02 10:54:16;;;;;;;4.80;2.05;;;;;;;17.90;100.00;98995.59;6100800;28;20032;-65
2023/08/02 10:57:11;;;;;;;7.18;2.55;;;;;;;17.59;100.00;98972.63;6100108;28;20036;-65
2023/08/02 11:00:18;;;;;;;7.23;2.33;;;;;;;17.56;100.00;98971.25;6100560;28;20365;-65
2023/08/02 11:03:27;;;;;;;4.85;2.30;;;;;;;17.39;100.00;98962.25;6100408;28;20927;-67
2023/08/02 11:06:24;;;;;;;5.70;2.70;;;;;;;17.24;100.00;98969.91;6106665;28;20048;-66
2023/08/02 11:09:32;;;;;;;7.93;2.67;;;;;;;16.97;100.00;98926.69;6100181;28;20036;-66
2023/08/02 11:12:30;;;;;;;6.40;2.63;;;;;;;17.21;100.00;98927.50;6102246;28;20055;-66
2023/08/02 11:15:26;;;;;;;6.15;2.72;;;;;;;17.24;100.00;98914.47;6096543;28;20100;-65
2023/08/02 11:18:21;;;;;;;4.90;2.72;;;;;;;17.26;100.00;98893.63;6099474;28;20476;-65
2023/08/02 11:21:16;;;;;;;6.30;2.50;;;;;;;17.23;100.00;98885.22;6087489;28;20052;-65
2023/08/02 11:24:12;;;;;;;5.00;3.00;;;;;;;17.34;100.00;98903.16;6102232;28;20115;-65
2023/08/02 11:27:07;;;;;;;6.72;3.25;;;;;;;17.02;100.00;98885.81;6104704;28;20278;-65
2023/08/02 11:30:05;;;;;;;6.90;2.97;;;;;;;17.00;100.00;98879.88;6100459;28;20037;-64
2023/08/02 11:33:01;;;;;;;7.63;3.15;;;;;;;17.10;100.00;98899.69;6098959;28;20048;-65
2023/08/02 11:35:57;;;;;;;7.43;2.87;;;;;;;17.10;100.00;98880.09;6106242;28;20047;-66
2023/08/02 11:38:52;;;;;;;6.80;3.22;;;;;;;17.07;100.00;98877.88;6100738;28;20037;-66
2023/08/02 11:42:02;;;;;;;7.93;3.00;;;;;;;16.85;100.00;98856.22;6102961;28;20052;-67
2023/08/02 11:44:57;;;;;;;7.20;2.90;;;;;;;16.72;100.00;98850.28;6102273;28;20262;-66
2023/08/02 11:47:52;;;;;;;8.88;3.22;;;;;;;16.86;100.00;98852.50;6102032;28;20060;-67
2023/08/02 11:50:48;;;;;;;5.67;3.00;;;;;;;16.71;100.00;98835.28;6099024;28;20120;-66
2023/08/02 11:53:50;;;;;;;8.63;3.65;;;;;;;16.84;100.00;98832.38;6100443;28;20029;-65
2023/08/02 11:56:45;;;;;;;8.60;3.85;;;;;;;16.61;100.00;98796.50;6100726;28;20025;-66
2023/08/02 11:59:44;;;;;;;6.20;3.25;;;;;;;16.65;100.00;98803.03;6098434;28;20139;-65
2023/08/02 12:02:39;;;;;;;10.75;4.10;;;;;;;16.69;100.00;98797.22;6098926;28;20082;-65
2023/08/02 12:05:35;;;;;;;7.40;4.17;;;;;;;16.75;100.00;98798.94;6097990;28;20029;-64
2023/08/02 12:08:30;;;;;;;6.88;4.13;;;;;;;16.71;100.00;98777.22;6098294;28;20137;-64
2023/08/02 12:11:26;;;;;;;7.10;3.90;;;;;;;16.76;100.00;98765.78;6097721;28;20033;-64
2023/08/02 12:14:28;;;;;;;9.05;3.75;;;;;;;16.97;100.00;98767.88;6096023;28;20017;-64
2023/08/02 12:17:24;;;;;;;7.25;4.05;;;;;;;16.90;100.00;98751.94;6102600;28;20039;-65
2023/08/02 12:20:32;;;;;;;7.22;3.30;;;;;;;16.84;100.00;98754.72;6097988;28;20211;-64
2023/08/02 12:23:35;;;;;;;7.40;3.45;;;;;;;16.81;100.00;98741.81;6103962;28;20051;-64
2023/08/02 12:26:35;;;;;;;6.43;2.92;;;;;;;16.86;100.00;98752.63;6097118;28;20036;-64
2023/08/02 12:29:30;;;;;;;7.53;3.35;;;;;;;17.00;100.00;98754.00;6093274;28;20468;-64
2023/08/02 12:32:27;;;;;;;6.03;3.55;;;;;;;16.99;100.00;98737.13;6108377;28;20078;-64
2023/08/02 12:35:22;;;;;;;8.63;3.13;;;;;;;17.04;100.00;98728.41;6100858;28;20029;-64
2023/08/02 12:38:17;;;;;;;5.60;2.50;;;;;;;16.98;100.00;98719.44;6101760;28;20560;-64
2023/08/02 12:41:12;;;;;;;6.10;3.23;;;;;;;16.93;100.00;98716.63;6106947;28;20040;-64
2023/08/02 12:44:08;;;;;;;7.17;3.00;;;;;;;17.12;100.00;98720.78;6102021;28;20060;-64
2023/08/02 12:47:03;;;;;;;6.00;2.50;;;;;;;17.06;100.00;98723.63;6101201;28;20044;-64
2023/08/02 12:49:59;;;;;;;5.28;2.55;;;;;;;17.00;100.00;98700.44;6097376;28;20517;-65
2023/08/02 12:52:54;;;;;;;6.53;2.87;;;;;;;17.11;100.00;98702.28;6104183;28;20106;-65
2023/08/02 12:55:49;;;;;;;5.25;2.60;;;;;;;17.10;100.00;98696.09;6097427;28;20071;-65
2023/08/02 12:58:45;;;;;;;4.75;2.30;;;;;;;17.22;100.00;98693.41;6102856;28;20040;-65
2023/08/02 13:01:40;;;;;;;4.47;2.58;;;;;;;17.22;100.00;98699.56;6097614;28;20427;-64
2023/08/02 13:04:36;;;;;;;5.13;2.67;;;;;;;17.35;100.00;98693.13;6099291;28;20033;-65
2023/08/02 13:07:31;;;;;;;4.90;2.50;;;;;;;17.33;100.00;98673.78;6099375;28;20104;-65
2023/08/02 13:10:27;;;;;;;7.38;2.60;;;;;;;17.49;100.00;98674.88;6103555;28;20455;-65
2023/08/02 13:13:23;;;;;;;4.35;2.00;;;;;;;17.60;100.00;98672.19;6098090;28;20622;-65
2023/08/02 13:16:18;;;;;;;4.57;2.00;;;;;;;17.74;100.00;98662.78;6097556;28;20033;-65
2023/08/02 13:19:13;;;;;;;3.03;1.37;;;;;;;17.83;100.00;98657.81;6098075;28;20757;-64
2023/08/02 13:22:09;;;;;;;1.73;0.90;;;;;;;17.97;100.00;98647.56;6097766;28;20032;-64
2023/08/02 13:25:06;;;;;;;0.95;0.60;;;;;;;18.13;100.00;98657.47;6100312;28;20469;-65
2023/08/02 13:28:01;;;;;;;1.35;0.80;;;;;;;18.12;100.00;98634.41;6101524;28;20094;-65
2023/08/02 13:30:58;;;;;;;2.80;1.23;;;;;;;18.28;100.00;98649.69;6100699;28;20020;-65
2023/08/02 13:33:54;;;;;;;2.55;1.10;;;;;;;18.24;100.00;98638.63;6099005;28;20106;-64
2023/08/02 13:36:49;;;;;;;2.00;0.80;;;;;;;18.31;100.00;98641.97;6098248;28;20029;-65
2023/08/02 13:39:44;;;;;;;2.22;0.90;;;;;;;18.25;100.00;98628.69;6096977;28;20039;-64
2023/08/02 13:42:40;;;;;;;2.03;0.97;;;;;;;18.17;100.00;98627.25;6107914;28;20111;-65
2023/08/02 13:45:35;;;;;;;2.03;0.80;;;;;;;18.16;100.00;98617.56;6101300;28;20040;-65